createdAt,value
2023-01-15T00:02:17.959Z,5.08
2023-01-15T00:04:44.540Z,5.04
2023-01-15T00:07:11.003Z,5.06
2023-01-15T00:09:37.517Z,5.09
2023-01-15T00:12:04.286Z,5.09
2023-01-15T00:14:30.711Z,5.15
2023-01-15T00:16:57.062Z,5.14
2023-01-15T00:19:23.446Z,5.11
2023-01-15T00:21:49.867Z,5.11
2023-01-15T00:24:34.675Z,5.11
2023-01-15T00:27:19.543Z,5.13
2023-01-15T00:29:46.033Z,5.13
2023-01-15T00:32:12.472Z,5.15
2023-01-15T00:34:38.849Z,5.14
2023-01-15T00:37:05.407Z,5.19
2023-01-15T00:39:31.799Z,5.16
2023-01-15T00:41:58.179Z,5.17
2023-01-15T00:44:24.598Z,5.16
2023-01-15T00:46:51.137Z,5.16
2023-01-15T00:49:17.783Z,5.20
2023-01-15T00:51:44.430Z,5.22
2023-01-15T00:54:11.009Z,5.25
2023-01-15T00:56:37.432Z,5.16
2023-01-15T00:59:04.780Z,5.08
2023-01-15T01:01:31.617Z,5.12
2023-01-15T01:03:58.215Z,5.09
2023-01-15T01:06:25.468Z,5.16
2023-01-15T01:08:51.967Z,5.16
2023-01-15T01:11:23.869Z,5.12
2023-01-15T01:13:50.269Z,5.14
2023-01-15T01:16:26.134Z,5.15
2023-01-15T01:18:53.847Z,5.12
2023-01-15T01:21:20.294Z,5.12
2023-01-15T01:23:47.553Z,5.11
2023-01-15T01:26:14.090Z,5.08
2023-01-15T01:28:41.481Z,5.09
2023-01-15T01:31:09.239Z,5.05
2023-01-15T01:33:36.290Z,5.06
2023-01-15T01:36:03.023Z,5.04
2023-01-15T01:38:29.554Z,5.08
2023-01-15T01:40:56.013Z,5.08
2023-01-15T01:43:27.760Z,5.06
2023-01-15T01:45:54.377Z,5.12
2023-01-15T01:48:30.803Z,5.17
2023-01-15T01:51:01.793Z,5.20
2023-01-15T01:53:31.355Z,5.13
2023-01-15T01:56:00.006Z,5.12
2023-01-15T01:58:29.756Z,5.15
2023-01-15T02:00:57.020Z,5.12
2023-01-15T02:03:30.171Z,5.10
2023-01-15T02:05:59.930Z,5.06
2023-01-15T02:08:26.455Z,5.06
2023-01-15T02:10:55.727Z,5.05
2023-01-15T02:13:39.204Z,5.05
2023-01-15T02:16:32.664Z,4.84
2023-01-15T02:19:14.664Z,4.85
2023-01-15T02:22:05.138Z,4.81
2023-01-15T02:24:54.746Z,4.82
2023-01-15T02:27:24.804Z,4.74
2023-01-15T02:30:12.714Z,4.79
2023-01-15T02:32:44.102Z,4.80
2023-01-15T02:35:23.248Z,4.72
2023-01-15T02:37:57.643Z,4.70
2023-01-15T02:40:26.542Z,4.69
2023-01-15T02:42:55.234Z,4.63
2023-01-15T02:45:32.057Z,4.67
2023-01-15T02:48:05.930Z,4.68
2023-01-15T02:50:38.448Z,4.59
2023-01-15T02:53:09.644Z,4.60
2023-01-15T02:55:37.816Z,4.62
2023-01-15T02:58:10.873Z,4.66
2023-01-15T03:00:42.027Z,4.59
2023-01-15T03:03:21.106Z,4.51
2023-01-15T03:06:10.800Z,4.41
2023-01-15T03:08:37.726Z,4.48
2023-01-15T03:11:07.123Z,4.45
2023-01-15T03:13:42.663Z,4.46
2023-01-15T03:16:37.917Z,4.51
2023-01-15T03:19:26.843Z,4.52
2023-01-15T03:22:04.917Z,4.48
2023-01-15T03:24:47.195Z,4.44
2023-01-15T03:27:14.278Z,4.48
2023-01-15T03:29:47.131Z,4.47
2023-01-15T03:32:15.333Z,4.45
2023-01-15T03:34:48.942Z,4.48
2023-01-15T03:37:15.823Z,4.48
2023-01-15T03:39:42.939Z,4.41
2023-01-15T03:42:19.930Z,4.42
2023-01-15T03:44:55.233Z,4.41
2023-01-15T03:47:55.525Z,4.35
2023-01-15T03:50:32.138Z,4.43
2023-01-15T03:53:20.289Z,4.46
2023-01-15T03:56:08.569Z,4.50
2023-01-15T03:58:56.561Z,4.53
2023-01-15T04:01:29.300Z,4.52
2023-01-15T04:03:56.801Z,4.52
2023-01-15T04:06:26.381Z,4.51
2023-01-15T04:08:54.213Z,4.49
2023-01-15T04:11:25.544Z,4.53
2023-01-15T04:13:52.066Z,4.51
2023-01-15T04:16:27.630Z,4.53
2023-01-15T04:18:54.442Z,4.50
2023-01-15T04:21:21.763Z,4.52
2023-01-15T04:23:48.307Z,4.51
2023-01-15T04:26:15.213Z,4.48
2023-01-15T04:28:42.150Z,4.51
2023-01-15T04:31:08.815Z,4.49
2023-01-15T04:33:35.307Z,4.43
2023-01-15T04:36:03.715Z,4.45
2023-01-15T04:38:30.560Z,4.46
2023-01-15T04:41:20.469Z,4.52
2023-01-15T04:44:05.135Z,4.54
2023-01-15T04:46:32.518Z,4.45
2023-01-15T04:48:59.002Z,4.34
2023-01-15T04:51:25.465Z,4.25
2023-01-15T04:53:51.952Z,4.28
2023-01-15T04:56:18.359Z,4.17
2023-01-15T04:58:44.738Z,4.10
2023-01-15T05:01:16.936Z,4.12
2023-01-15T05:03:43.717Z,4.11
2023-01-15T05:06:10.619Z,4.02
2023-01-15T05:08:37.015Z,4.08
2023-01-15T05:11:06.292Z,4.12
2023-01-15T05:13:33.892Z,4.07
2023-01-15T05:16:18.284Z,4.02
2023-01-15T05:18:46.034Z,4.05
2023-01-15T05:21:24.593Z,4.04
2023-01-15T05:23:52.844Z,4.04
2023-01-15T05:26:20.957Z,4.04
2023-01-15T05:28:47.974Z,4.08
2023-01-15T05:31:17.351Z,4.08
2023-01-15T05:33:44.821Z,4.10
2023-01-15T05:36:17.113Z,4.06
2023-01-15T05:38:43.799Z,4.02
2023-01-15T05:41:35.437Z,3.96
2023-01-15T05:44:04.873Z,4.04
2023-01-15T05:46:31.485Z,4.01
2023-01-15T05:49:02.232Z,3.93
2023-01-15T05:51:29.379Z,3.97
2023-01-15T05:53:57.549Z,4.00
2023-01-15T05:56:24.301Z,3.97
2023-01-15T05:58:50.694Z,3.94
2023-01-15T06:01:17.681Z,3.97
2023-01-15T06:03:44.205Z,3.88
2023-01-15T06:06:13.952Z,3.91
2023-01-15T06:08:40.861Z,3.92
2023-01-15T06:11:07.520Z,3.90
2023-01-15T06:13:35.004Z,3.85
2023-01-15T06:16:01.669Z,3.91
2023-01-15T06:18:28.107Z,3.94
2023-01-15T06:20:54.582Z,3.90
2023-01-15T06:23:20.972Z,3.91
2023-01-15T06:25:47.571Z,3.93
2023-01-15T06:28:14.007Z,3.92
2023-01-15T06:30:40.490Z,3.93
2023-01-15T06:33:07.543Z,3.93
2023-01-15T06:35:35.057Z,3.99
2023-01-15T06:38:01.466Z,4.01
2023-01-15T06:40:28.897Z,3.93
2023-01-15T06:43:17.228Z,3.89
2023-01-15T06:46:02.519Z,3.88
2023-01-15T06:48:29.061Z,3.94
2023-01-15T06:50:55.611Z,3.93
2023-01-15T06:53:22.545Z,3.88
2023-01-15T06:55:49.089Z,3.91
2023-01-15T06:58:15.523Z,3.95
2023-01-15T07:00:43.349Z,3.88
2023-01-15T07:03:09.786Z,3.91
2023-01-15T07:05:42.164Z,3.95
2023-01-15T07:08:08.664Z,3.95
2023-01-15T07:10:35.647Z,4.02
2023-01-15T07:13:02.147Z,4.06
2023-01-15T07:15:28.965Z,4.09
2023-01-15T07:17:56.164Z,4.11
2023-01-15T07:20:22.703Z,4.15
2023-01-15T07:22:50.467Z,4.15
2023-01-15T07:25:17.071Z,4.16
2023-01-15T07:27:45.700Z,4.23
2023-01-15T07:30:12.555Z,4.25
2023-01-15T07:32:38.995Z,4.15
2023-01-15T07:35:05.822Z,4.22
2023-01-15T07:37:32.198Z,4.24
2023-01-15T07:39:58.631Z,4.29
2023-01-15T07:42:43.478Z,4.28
2023-01-15T07:45:29.335Z,4.29
2023-01-15T07:48:14.121Z,4.33
2023-01-15T07:50:40.550Z,4.34
2023-01-15T07:53:08.041Z,4.37
2023-01-15T07:55:35.949Z,4.36
2023-01-15T07:58:03.266Z,4.39
2023-01-15T08:00:30.698Z,4.41
2023-01-15T08:02:57.128Z,4.39
2023-01-15T08:05:23.575Z,4.47
2023-01-15T08:07:50.440Z,4.45
2023-01-15T08:10:17.064Z,4.46
2023-01-15T08:13:02.343Z,4.49
2023-01-15T08:15:33.371Z,4.58
2023-01-15T08:17:59.825Z,4.65
2023-01-15T08:20:27.000Z,4.72
2023-01-15T08:22:53.697Z,4.79
2023-01-15T08:25:23.202Z,4.78
2023-01-15T08:27:50.092Z,4.79
2023-01-15T08:30:20.178Z,4.88
2023-01-15T08:32:47.243Z,4.93
2023-01-15T08:35:13.900Z,4.96
2023-01-15T08:37:41.336Z,5.03
2023-01-15T08:40:09.061Z,5.15
2023-01-15T08:42:35.597Z,5.15
2023-01-15T08:45:02.753Z,5.20
2023-01-15T08:47:29.170Z,5.26
2023-01-15T08:49:55.686Z,5.26
2023-01-15T08:52:22.122Z,5.43
2023-01-15T08:54:48.469Z,5.41
2023-01-15T08:57:15.952Z,5.48
2023-01-15T08:59:43.312Z,5.49
2023-01-15T09:02:12.468Z,5.52
2023-01-15T09:04:39.021Z,5.54
2023-01-15T09:07:05.545Z,5.68
2023-01-15T09:09:32.008Z,5.83
2023-01-15T09:11:58.343Z,6.18
2023-01-15T09:14:55.415Z,6.55
2023-01-15T09:17:11.181Z,6.73
2023-01-15T09:19:37.647Z,6.71
2023-01-15T09:22:04.103Z,6.87
2023-01-15T09:24:30.509Z,6.99
2023-01-15T09:26:56.967Z,7.06
2023-01-15T09:29:23.401Z,7.06
2023-01-15T09:31:49.752Z,7.01
2023-01-15T09:34:16.168Z,7.03
2023-01-15T09:36:43.707Z,6.97
2023-01-15T09:39:10.188Z,6.99
2023-01-15T09:42:07.144Z,6.90
2023-01-15T09:44:36.124Z,6.85
2023-01-15T09:47:24.879Z,6.65
2023-01-15T09:50:19.098Z,6.49
2023-01-15T09:52:54.601Z,6.40
2023-01-15T09:55:21.101Z,6.42
2023-01-15T09:57:51.959Z,6.28
2023-01-15T10:00:27.996Z,6.27
2023-01-15T10:03:22.453Z,6.15
2023-01-15T10:06:13.776Z,6.19
2023-01-15T10:08:43.226Z,6.19
2023-01-15T10:11:15.601Z,6.12
2023-01-15T10:13:56.190Z,6.10
2023-01-15T10:16:25.812Z,5.96
2023-01-15T10:18:53.253Z,5.95
2023-01-15T10:21:31.127Z,5.89
2023-01-15T10:23:57.508Z,5.88
2023-01-15T10:26:35.631Z,5.89
2023-01-15T10:29:09.720Z,5.91
2023-01-15T10:32:03.020Z,5.79
2023-01-15T10:34:32.447Z,5.81
2023-01-15T10:37:06.820Z,5.78
2023-01-15T10:39:48.732Z,5.76
2023-01-15T10:42:40.601Z,5.82
2023-01-15T10:45:24.284Z,5.71
2023-01-15T10:47:56.427Z,5.74
2023-01-15T10:50:25.391Z,5.75
2023-01-15T10:53:20.999Z,5.63
2023-01-15T10:55:55.329Z,5.65
2023-01-15T10:58:34.229Z,5.60
2023-01-15T11:01:05.524Z,5.48
2023-01-15T11:03:43.668Z,5.57
2023-01-15T11:06:16.344Z,5.55
2023-01-15T11:09:08.619Z,5.57
2023-01-15T11:11:59.342Z,5.54
2023-01-15T11:14:56.685Z,5.54
2023-01-15T11:18:10.880Z,5.53
2023-01-15T11:20:44.948Z,5.41
2023-01-15T11:23:15.648Z,5.35
2023-01-15T11:25:57.739Z,5.24
2023-01-15T11:28:37.763Z,5.21
2023-01-15T11:31:04.432Z,5.19
2023-01-15T11:33:32.080Z,5.16
2023-01-15T11:36:01.486Z,5.17
2023-01-15T11:38:42.895Z,5.25
2023-01-15T11:41:21.576Z,5.27
2023-01-15T11:44:17.637Z,5.11
2023-01-15T11:47:16.083Z,5.05
2023-01-15T11:50:11.045Z,4.91
2023-01-15T11:52:58.440Z,4.94
2023-01-15T11:55:27.285Z,4.88
2023-01-15T11:57:56.385Z,4.90
2023-01-15T12:00:26.067Z,4.85
2023-01-15T12:03:00.302Z,4.91
2023-01-15T12:05:30.960Z,4.92
2023-01-15T12:08:01.309Z,4.93
2023-01-15T12:10:53.260Z,5.00
2023-01-15T12:13:37.754Z,4.96
2023-01-15T12:16:22.242Z,4.97
2023-01-15T12:18:58.678Z,5.03
2023-01-15T12:21:48.542Z,5.15
2023-01-15T12:24:47.084Z,5.16
2023-01-15T12:27:30.088Z,5.10
2023-01-15T12:30:10.862Z,5.05
2023-01-15T12:32:42.056Z,4.98
2023-01-15T12:35:22.572Z,4.97
2023-01-15T12:37:57.025Z,4.91
2023-01-15T12:40:33.153Z,4.92
2023-01-15T12:43:18.080Z,4.88
2023-01-15T12:45:49.793Z,4.93
2023-01-15T12:48:22.357Z,4.94
2023-01-15T12:50:51.585Z,4.94
2023-01-15T12:53:29.964Z,4.94
2023-01-15T12:56:07.153Z,4.98
2023-01-15T12:58:45.228Z,4.90
2023-01-15T13:01:30.316Z,4.89
2023-01-15T13:04:29.203Z,4.90
2023-01-15T13:07:11.220Z,4.84
2023-01-15T13:09:41.191Z,4.83
2023-01-15T13:12:15.868Z,4.80
2023-01-15T13:14:46.234Z,4.81
2023-01-15T13:17:45.997Z,4.74
2023-01-15T13:20:27.751Z,4.73
2023-01-15T13:23:21.341Z,4.58
2023-01-15T13:25:55.618Z,4.59
2023-01-15T13:28:41.011Z,4.51
2023-01-15T13:31:19.440Z,4.55
2023-01-15T13:33:54.108Z,4.52
2023-01-15T13:36:27.985Z,4.48
2023-01-15T13:39:00.579Z,4.53
2023-01-15T13:41:49.653Z,4.52
2023-01-15T13:44:19.328Z,4.54
2023-01-15T13:46:49.062Z,4.51
2023-01-15T13:49:25.524Z,4.47
2023-01-15T13:51:53.601Z,4.41
2023-01-15T13:54:23.836Z,4.41
2023-01-15T13:56:50.255Z,4.30
2023-01-15T13:59:39.727Z,4.26
2023-01-15T14:02:26.127Z,4.28
2023-01-15T14:04:53.068Z,4.23
2023-01-15T14:07:23.594Z,4.18
2023-01-15T14:09:50.530Z,4.17
2023-01-15T14:12:39.381Z,4.03
2023-01-15T14:15:08.965Z,4.08
2023-01-15T14:18:23.393Z,4.01
2023-01-15T14:21:24.033Z,4.01
2023-01-15T14:24:15.579Z,3.93
2023-01-15T14:27:00.231Z,3.94
2023-01-15T14:30:03.359Z,3.95
2023-01-15T14:32:51.575Z,3.89
2023-01-15T14:35:23.768Z,3.85
2023-01-15T14:38:15.475Z,3.78
2023-01-15T14:40:54.471Z,3.71
2023-01-15T14:43:22.429Z,3.68
2023-01-15T14:45:50.107Z,3.65
2023-01-15T14:48:19.320Z,3.63
2023-01-15T14:50:48.800Z,3.57
2023-01-15T14:53:33.405Z,3.59
2023-01-15T14:56:12.915Z,3.58
2023-01-15T14:58:57.166Z,3.54
2023-01-15T15:01:41.969Z,3.53
2023-01-15T15:04:11.147Z,3.51
2023-01-15T15:07:02.130Z,3.47
2023-01-15T15:09:30.931Z,3.48
2023-01-15T15:12:21.306Z,3.47
2023-01-15T15:15:25.124Z,3.39
2023-01-15T15:18:22.737Z,3.40
2023-01-15T15:21:12.993Z,3.40
2023-01-15T15:23:48.559Z,3.36
2023-01-15T15:26:33.325Z,3.30
2023-01-15T15:29:00.860Z,3.29
2023-01-15T15:31:31.018Z,3.26
2023-01-15T15:33:58.814Z,3.25
2023-01-15T15:36:28.901Z,3.23
2023-01-15T15:39:01.989Z,3.16
2023-01-15T15:41:53.832Z,3.11
2023-01-15T15:45:05.359Z,3.03
2023-01-15T15:47:57.250Z,2.94
2023-01-15T15:50:35.334Z,2.91
2023-01-15T15:53:06.634Z,2.92
2023-01-15T15:55:40.647Z,2.92
2023-01-15T15:58:11.631Z,2.86
2023-01-15T16:00:43.073Z,2.84
2023-01-15T16:03:20.606Z,2.84
2023-01-15T16:05:57.437Z,2.80
2023-01-15T16:08:23.815Z,2.74
2023-01-15T16:10:53.589Z,2.72
2023-01-15T16:13:27.309Z,2.73
2023-01-15T16:15:56.779Z,2.75
2023-01-15T16:18:31.346Z,2.74
2023-01-15T16:20:58.425Z,2.73
2023-01-15T16:23:28.389Z,2.68
2023-01-15T16:26:12.767Z,2.65
2023-01-15T16:28:43.607Z,2.64
2023-01-15T16:31:11.777Z,2.65
2023-01-15T16:33:38.978Z,2.65
2023-01-15T16:36:07.865Z,2.61
2023-01-15T16:38:37.766Z,2.63
2023-01-15T16:41:04.559Z,2.61
2023-01-15T16:43:31.786Z,2.63
2023-01-15T16:46:15.805Z,2.61
2023-01-15T16:48:46.878Z,2.63
2023-01-15T16:51:33.098Z,2.63
2023-01-15T16:54:05.424Z,2.60
2023-01-15T16:56:34.877Z,2.57
2023-01-15T16:59:01.582Z,2.57
2023-01-15T17:01:36.511Z,2.57
2023-01-15T17:04:04.397Z,2.56
2023-01-15T17:06:31.023Z,2.50
2023-01-15T17:08:58.913Z,2.46
2023-01-15T17:11:29.787Z,2.47
2023-01-15T17:14:30.332Z,2.42
2023-01-15T17:17:15.239Z,2.48
2023-01-15T17:19:41.652Z,2.39
2023-01-15T17:22:31.106Z,2.37
2023-01-15T17:25:00.023Z,2.38
2023-01-15T17:27:28.313Z,2.33
2023-01-15T17:29:55.460Z,2.33
2023-01-15T17:32:40.303Z,2.37
2023-01-15T17:35:18.355Z,2.39
2023-01-15T17:37:45.881Z,2.36
2023-01-15T17:40:12.616Z,2.30
2023-01-15T17:42:39.069Z,2.31
2023-01-15T17:45:06.533Z,2.28
2023-01-15T17:47:32.969Z,2.20
2023-01-15T17:49:59.503Z,2.21
2023-01-15T17:52:25.948Z,2.22
2023-01-15T17:55:11.203Z,2.22
2023-01-15T17:57:56.597Z,2.16
2023-01-15T18:00:41.952Z,2.11
2023-01-15T18:03:35.679Z,1.97
2023-01-15T18:06:02.577Z,1.87
2023-01-15T18:08:31.169Z,1.86
2023-01-15T18:10:57.587Z,1.86
2023-01-15T18:13:23.934Z,1.82
2023-01-15T18:15:50.466Z,1.84
2023-01-15T18:18:16.917Z,1.83
2023-01-15T18:20:43.332Z,1.76
2023-01-15T18:23:10.093Z,1.77
2023-01-15T18:25:36.542Z,1.75
2023-01-15T18:28:03.187Z,1.68
2023-01-15T18:30:29.724Z,1.61
2023-01-15T18:32:56.342Z,1.59
2023-01-15T18:35:23.729Z,1.62
2023-01-15T18:37:50.182Z,1.50
2023-01-15T18:40:16.635Z,1.60
2023-01-15T18:43:01.877Z,1.56
2023-01-15T18:45:46.544Z,1.61
2023-01-15T18:48:12.957Z,1.63
2023-01-15T18:50:39.400Z,1.50
2023-01-15T18:53:05.756Z,1.47
2023-01-15T18:55:34.422Z,1.53
2023-01-15T18:58:01.742Z,1.51
2023-01-15T19:00:28.315Z,1.47
2023-01-15T19:02:54.818Z,1.46
2023-01-15T19:05:21.418Z,1.46
2023-01-15T19:07:48.050Z,1.48
2023-01-15T19:10:15.960Z,1.51
2023-01-15T19:12:43.720Z,1.47
2023-01-15T19:15:31.757Z,1.44
2023-01-15T19:18:17.133Z,1.44
2023-01-15T19:20:43.544Z,1.45
2023-01-15T19:23:09.980Z,1.48
2023-01-15T19:25:44.962Z,1.45
2023-01-15T19:28:17.799Z,1.47
2023-01-15T19:31:11.486Z,1.46
2023-01-15T19:33:37.904Z,1.51
2023-01-15T19:36:04.990Z,1.51
2023-01-15T19:38:33.404Z,1.45
2023-01-15T19:41:19.749Z,1.53
2023-01-15T19:44:04.547Z,1.53
2023-01-15T19:46:49.811Z,1.54
2023-01-15T19:49:38.503Z,1.48
2023-01-15T19:52:23.903Z,1.55
2023-01-15T19:55:00.093Z,1.55
2023-01-15T19:57:26.722Z,1.50
2023-01-15T19:59:53.128Z,1.52
2023-01-15T20:02:19.679Z,1.50
2023-01-15T20:04:46.991Z,1.40
2023-01-15T20:07:13.512Z,1.43
2023-01-15T20:09:41.011Z,1.48
2023-01-15T20:12:26.005Z,1.43
2023-01-15T20:14:54.558Z,1.46
2023-01-15T20:17:21.942Z,1.40
2023-01-15T20:19:48.561Z,1.38
2023-01-15T20:22:15.828Z,1.37
2023-01-15T20:24:44.307Z,1.35
2023-01-15T20:27:12.750Z,1.40
2023-01-15T20:29:42.712Z,1.38
2023-01-15T20:32:09.624Z,1.36
2023-01-15T20:34:39.726Z,1.31
2023-01-15T20:37:07.052Z,1.35
2023-01-15T20:39:33.957Z,1.27
2023-01-15T20:42:19.165Z,1.29
2023-01-15T20:44:54.354Z,1.30
2023-01-15T20:47:45.501Z,1.22
2023-01-15T20:50:15.827Z,1.23
2023-01-15T20:52:46.579Z,1.25
2023-01-15T20:55:13.444Z,1.17
2023-01-15T20:57:40.992Z,1.13
2023-01-15T21:00:11.568Z,1.18
2023-01-15T21:02:37.986Z,1.19
2023-01-15T21:05:05.304Z,1.15
2023-01-15T21:07:31.777Z,1.08
2023-01-15T21:09:58.192Z,1.09
2023-01-15T21:12:24.633Z,1.07
2023-01-15T21:14:50.974Z,1.14
2023-01-15T21:17:17.535Z,1.03
2023-01-15T21:19:43.895Z,1.08
2023-01-15T21:22:10.297Z,1.02
2023-01-15T21:24:36.781Z,1.09
2023-01-15T21:27:03.379Z,1.12
2023-01-15T21:29:29.983Z,1.08
2023-01-15T21:31:56.523Z,1.08
2023-01-15T21:34:23.251Z,1.09
2023-01-15T21:36:49.673Z,1.06
2023-01-15T21:39:17.449Z,1.13
2023-01-15T21:42:02.321Z,1.15
2023-01-15T21:44:32.753Z,1.18
2023-01-15T21:47:05.333Z,1.12
2023-01-15T21:49:33.151Z,1.12
2023-01-15T21:52:05.305Z,1.08
2023-01-15T21:54:32.172Z,1.00
2023-01-15T21:56:59.305Z,1.05
2023-01-15T21:59:25.848Z,1.06
2023-01-15T22:01:57.248Z,1.03
2023-01-15T22:04:24.437Z,1.08
2023-01-15T22:06:51.742Z,1.04
2023-01-15T22:09:18.981Z,1.03
2023-01-15T22:11:45.924Z,1.02
2023-01-15T22:14:24.129Z,0.91
2023-01-15T22:16:55.941Z,0.91
2023-01-15T22:19:25.078Z,0.88
2023-01-15T22:21:53.354Z,0.91
2023-01-15T22:24:20.214Z,0.82
2023-01-15T22:26:54.437Z,0.79
2023-01-15T22:29:26.432Z,0.80
2023-01-15T22:31:53.635Z,0.79
2023-01-15T22:34:21.521Z,0.86
2023-01-15T22:36:49.588Z,0.80
2023-01-15T22:39:16.280Z,0.77
2023-01-15T22:42:01.831Z,0.83
2023-01-15T22:44:28.664Z,0.82
2023-01-15T22:46:55.106Z,0.78
2023-01-15T22:49:22.058Z,0.84
2023-01-15T22:51:49.814Z,0.84
2023-01-15T22:54:18.756Z,0.82
2023-01-15T22:56:46.887Z,0.77
2023-01-15T22:59:15.168Z,0.85
2023-01-15T23:01:42.458Z,0.82
2023-01-15T23:04:20.063Z,0.81
2023-01-15T23:06:47.286Z,0.78
2023-01-15T23:09:13.883Z,0.78
2023-01-15T23:11:41.196Z,0.76
2023-01-15T23:14:10.296Z,0.72
2023-01-15T23:16:36.810Z,0.72
2023-01-15T23:19:03.740Z,0.76
2023-01-15T23:21:30.231Z,0.71
2023-01-15T23:23:58.906Z,0.74
2023-01-15T23:26:28.049Z,0.63
2023-01-15T23:28:54.543Z,0.61
2023-01-15T23:31:21.909Z,0.68
2023-01-15T23:33:48.652Z,0.68
2023-01-15T23:36:15.708Z,0.64
2023-01-15T23:38:43.464Z,0.64
2023-01-15T23:41:16.320Z,0.66
2023-01-15T23:44:02.449Z,0.63
2023-01-15T23:46:35.798Z,0.65
2023-01-15T23:49:05.653Z,0.70
2023-01-15T23:51:32.670Z,0.70
2023-01-15T23:54:00.050Z,0.67
2023-01-15T23:56:27.222Z,0.65
2023-01-15T23:58:54.251Z,0.65
